sensor_id;sensor_type;location;lat;lon;timestamp;temperature;humidity
67899;DHT22;54699;51.796;10.956;2022-10-15T00:00:41;22.60;53.50
67899;DHT22;54699;51.796;10.956;2022-10-15T00:03:08;22.50;53.40
67899;DHT22;54699;51.796;10.956;2022-10-15T00:05:35;22.50;53.30
67899;DHT22;54699;51.796;10.956;2022-10-15T00:08:02;22.50;53.40
67899;DHT22;54699;51.796;10.956;2022-10-15T00:10:29;22.60;53.50
67899;DHT22;54699;51.796;10.956;2022-10-15T00:12:58;22.50;53.30
67899;DHT22;54699;51.796;10.956;2022-10-15T00:15:25;22.50;54.30
67899;DHT22;54699;51.796;10.956;2022-10-15T00:17:51;22.50;53.30
67899;DHT22;54699;51.796;10.956;2022-10-15T00:20:18;22.60;53.40
67899;DHT22;54699;51.796;10.956;2022-10-15T00:22:45;22.50;53.40
67899;DHT22;54699;51.796;10.956;2022-10-15T00:25:12;22.50;53.40
67899;DHT22;54699;51.796;10.956;2022-10-15T00:27:39;22.50;53.40
67899;DHT22;54699;51.796;10.956;2022-10-15T00:30:09;22.50;53.40
67899;DHT22;54699;51.796;10.956;2022-10-15T00:32:36;22.50;53.40
67899;DHT22;54699;51.796;10.956;2022-10-15T00:35:03;22.50;53.50
67899;DHT22;54699;51.796;10.956;2022-10-15T00:37:31;22.50;53.50
67899;DHT22;54699;51.796;10.956;2022-10-15T00:39:58;22.50;53.60
67899;DHT22;54699;51.796;10.956;2022-10-15T00:42:25;22.60;53.60
67899;DHT22;54699;51.796;10.956;2022-10-15T00:44:52;22.50;53.40
67899;DHT22;54699;51.796;10.956;2022-10-15T00:47:31;22.50;53.50
67899;DHT22;54699;51.796;10.956;2022-10-15T00:50:05;22.50;53.50
67899;DHT22;54699;51.796;10.956;2022-10-15T00:52:36;22.50;53.60
67899;DHT22;54699;51.796;10.956;2022-10-15T00:55:09;22.50;53.70
67899;DHT22;54699;51.796;10.956;2022-10-15T00:57:39;22.50;53.60
67899;DHT22;54699;51.796;10.956;2022-10-15T01:00:09;22.50;53.60
67899;DHT22;54699;51.796;10.956;2022-10-15T01:02:40;22.50;53.70
67899;DHT22;54699;51.796;10.956;2022-10-15T01:05:08;22.50;53.80
67899;DHT22;54699;51.796;10.956;2022-10-15T01:07:36;22.50;53.70
67899;DHT22;54699;51.796;10.956;2022-10-15T01:10:03;22.50;53.70
67899;DHT22;54699;51.796;10.956;2022-10-15T01:12:39;22.50;53.80
67899;DHT22;54699;51.796;10.956;2022-10-15T01:15:18;22.40;53.90
67899;DHT22;54699;51.796;10.956;2022-10-15T01:17:52;22.50;53.90
67899;DHT22;54699;51.796;10.956;2022-10-15T01:20:43;22.50;53.80
67899;DHT22;54699;51.796;10.956;2022-10-15T01:23:28;22.50;53.90
67899;DHT22;54699;51.796;10.956;2022-10-15T01:26:23;22.50;53.90
67899;DHT22;54699;51.796;10.956;2022-10-15T01:29:04;22.40;53.90
67899;DHT22;54699;51.796;10.956;2022-10-15T01:31:41;22.40;53.90
67899;DHT22;54699;51.796;10.956;2022-10-15T01:34:17;22.50;54.00
67899;DHT22;54699;51.796;10.956;2022-10-15T01:36:47;22.40;53.80
67899;DHT22;54699;51.796;10.956;2022-10-15T01:39:20;22.40;54.00
67899;DHT22;54699;51.796;10.956;2022-10-15T01:41:51;22.40;53.90
67899;DHT22;54699;51.796;10.956;2022-10-15T01:44:22;22.40;53.90
67899;DHT22;54699;51.796;10.956;2022-10-15T01:46:55;22.40;53.90
67899;DHT22;54699;51.796;10.956;2022-10-15T01:49:27;22.50;54.00
67899;DHT22;54699;51.796;10.956;2022-10-15T01:51:58;22.50;54.00
67899;DHT22;54699;51.796;10.956;2022-10-15T01:54:30;22.40;54.00
67899;DHT22;54699;51.796;10.956;2022-10-15T01:56:57;22.40;53.80
67899;DHT22;54699;51.796;10.956;2022-10-15T01:59:26;22.50;54.00
67899;DHT22;54699;51.796;10.956;2022-10-15T02:01:57;22.40;54.00
67899;DHT22;54699;51.796;10.956;2022-10-15T02:04:25;22.40;53.90
67899;DHT22;54699;51.796;10.956;2022-10-15T02:06:56;22.40;54.00
67899;DHT22;54699;51.796;10.956;2022-10-15T02:09:28;22.40;54.00
67899;DHT22;54699;51.796;10.956;2022-10-15T02:12:07;22.40;53.90
67899;DHT22;54699;51.796;10.956;2022-10-15T02:14:41;22.50;53.90
67899;DHT22;54699;51.796;10.956;2022-10-15T02:17:14;22.50;53.90
67899;DHT22;54699;51.796;10.956;2022-10-15T02:19:47;22.40;53.90
67899;DHT22;54699;51.796;10.956;2022-10-15T02:22:16;22.40;53.90
67899;DHT22;54699;51.796;10.956;2022-10-15T02:24:49;22.40;53.90
67899;DHT22;54699;51.796;10.956;2022-10-15T02:27:20;22.40;54.00
67899;DHT22;54699;51.796;10.956;2022-10-15T02:29:47;22.40;53.90
67899;DHT22;54699;51.796;10.956;2022-10-15T02:32:18;22.40;53.90
67899;DHT22;54699;51.796;10.956;2022-10-15T02:34:46;22.40;54.10
67899;DHT22;54699;51.796;10.956;2022-10-15T02:37:15;22.40;54.20
67899;DHT22;54699;51.796;10.956;2022-10-15T02:39:45;22.30;54.20
67899;DHT22;54699;51.796;10.956;2022-10-15T02:42:12;22.40;54.10
67899;DHT22;54699;51.796;10.956;2022-10-15T02:44:40;22.40;54.00
67899;DHT22;54699;51.796;10.956;2022-10-15T02:47:07;22.40;53.90
67899;DHT22;54699;51.796;10.956;2022-10-15T02:49:35;22.40;54.00
67899;DHT22;54699;51.796;10.956;2022-10-15T02:52:02;22.40;53.90
67899;DHT22;54699;51.796;10.956;2022-10-15T02:54:29;22.40;54.00
67899;DHT22;54699;51.796;10.956;2022-10-15T02:56:56;22.40;54.00
67899;DHT22;54699;51.796;10.956;2022-10-15T02:59:23;22.40;54.10
67899;DHT22;54699;51.796;10.956;2022-10-15T03:01:50;22.40;54.00
67899;DHT22;54699;51.796;10.956;2022-10-15T03:04:16;22.40;54.00
67899;DHT22;54699;51.796;10.956;2022-10-15T03:06:45;22.30;54.00
67899;DHT22;54699;51.796;10.956;2022-10-15T03:09:11;22.40;53.90
67899;DHT22;54699;51.796;10.956;2022-10-15T03:11:38;22.30;53.90
67899;DHT22;54699;51.796;10.956;2022-10-15T03:14:05;22.40;53.90
67899;DHT22;54699;51.796;10.956;2022-10-15T03:16:32;22.40;53.80
67899;DHT22;54699;51.796;10.956;2022-10-15T03:18:59;22.40;53.80
67899;DHT22;54699;51.796;10.956;2022-10-15T03:21:25;22.40;53.80
67899;DHT22;54699;51.796;10.956;2022-10-15T03:23:56;22.40;53.90
67899;DHT22;54699;51.796;10.956;2022-10-15T03:26:23;22.40;53.70
67899;DHT22;54699;51.796;10.956;2022-10-15T03:28:50;22.40;53.70
67899;DHT22;54699;51.796;10.956;2022-10-15T03:31:17;22.40;53.80
67899;DHT22;54699;51.796;10.956;2022-10-15T03:33:43;22.40;53.80
67899;DHT22;54699;51.796;10.956;2022-10-15T03:36:10;22.40;53.80
67899;DHT22;54699;51.796;10.956;2022-10-15T03:38:37;22.40;53.70
67899;DHT22;54699;51.796;10.956;2022-10-15T03:41:05;22.40;53.70
67899;DHT22;54699;51.796;10.956;2022-10-15T03:43:32;22.40;53.70
67899;DHT22;54699;51.796;10.956;2022-10-15T03:46:00;22.40;53.80
67899;DHT22;54699;51.796;10.956;2022-10-15T03:48:27;22.40;53.80
67899;DHT22;54699;51.796;10.956;2022-10-15T03:50:54;22.40;53.90
67899;DHT22;54699;51.796;10.956;2022-10-15T03:53:21;22.40;53.80
67899;DHT22;54699;51.796;10.956;2022-10-15T03:55:48;22.40;53.70
67899;DHT22;54699;51.796;10.956;2022-10-15T03:58:16;22.40;53.70
67899;DHT22;54699;51.796;10.956;2022-10-15T04:00:43;22.40;53.70
67899;DHT22;54699;51.796;10.956;2022-10-15T04:03:10;22.40;53.60
67899;DHT22;54699;51.796;10.956;2022-10-15T04:05:37;22.40;53.70
67899;DHT22;54699;51.796;10.956;2022-10-15T04:08:04;22.40;53.70
67899;DHT22;54699;51.796;10.956;2022-10-15T04:10:31;22.40;53.70
67899;DHT22;54699;51.796;10.956;2022-10-15T04:12:58;22.40;53.70
67899;DHT22;54699;51.796;10.956;2022-10-15T04:15:26;22.40;53.70
67899;DHT22;54699;51.796;10.956;2022-10-15T04:17:53;22.40;53.70
67899;DHT22;54699;51.796;10.956;2022-10-15T04:20:20;22.40;53.60
67899;DHT22;54699;51.796;10.956;2022-10-15T04:22:47;22.40;53.70
67899;DHT22;54699;51.796;10.956;2022-10-15T04:25:14;22.40;53.70
67899;DHT22;54699;51.796;10.956;2022-10-15T04:27:41;22.30;53.70
67899;DHT22;54699;51.796;10.956;2022-10-15T04:30:08;22.40;53.70
67899;DHT22;54699;51.796;10.956;2022-10-15T04:32:37;22.40;53.60
67899;DHT22;54699;51.796;10.956;2022-10-15T04:35:04;22.30;53.70
67899;DHT22;54699;51.796;10.956;2022-10-15T04:37:32;22.30;53.70
67899;DHT22;54699;51.796;10.956;2022-10-15T04:39:59;22.30;53.70
67899;DHT22;54699;51.796;10.956;2022-10-15T04:42:27;22.30;53.80
67899;DHT22;54699;51.796;10.956;2022-10-15T04:44:54;22.30;53.80
67899;DHT22;54699;51.796;10.956;2022-10-15T04:47:21;22.30;53.70
67899;DHT22;54699;51.796;10.956;2022-10-15T04:49:50;22.30;53.70
67899;DHT22;54699;51.796;10.956;2022-10-15T04:52:17;22.30;53.70
67899;DHT22;54699;51.796;10.956;2022-10-15T04:54:44;22.30;54.00
67899;DHT22;54699;51.796;10.956;2022-10-15T04:57:11;22.30;53.80
67899;DHT22;54699;51.796;10.956;2022-10-15T04:59:38;22.30;53.70
67899;DHT22;54699;51.796;10.956;2022-10-15T05:02:04;22.30;53.60
67899;DHT22;54699;51.796;10.956;2022-10-15T05:04:31;22.30;53.60
67899;DHT22;54699;51.796;10.956;2022-10-15T05:06:59;22.30;53.70
67899;DHT22;54699;51.796;10.956;2022-10-15T05:09:26;22.30;53.70
67899;DHT22;54699;51.796;10.956;2022-10-15T05:11:53;22.30;53.80
67899;DHT22;54699;51.796;10.956;2022-10-15T05:14:20;22.30;53.70
67899;DHT22;54699;51.796;10.956;2022-10-15T05:16:47;22.30;53.80
67899;DHT22;54699;51.796;10.956;2022-10-15T05:19:14;22.30;53.80
67899;DHT22;54699;51.796;10.956;2022-10-15T05:21:42;22.30;53.70
67899;DHT22;54699;51.796;10.956;2022-10-15T05:24:10;22.30;53.70
67899;DHT22;54699;51.796;10.956;2022-10-15T05:26:37;22.30;53.70
67899;DHT22;54699;51.796;10.956;2022-10-15T05:29:04;22.30;53.70
67899;DHT22;54699;51.796;10.956;2022-10-15T05:31:31;22.30;53.70
67899;DHT22;54699;51.796;10.956;2022-10-15T05:33:58;22.30;53.70
67899;DHT22;54699;51.796;10.956;2022-10-15T05:36:32;22.30;53.80
67899;DHT22;54699;51.796;10.956;2022-10-15T05:38:59;22.30;53.70
67899;DHT22;54699;51.796;10.956;2022-10-15T05:41:28;22.30;53.70
67899;DHT22;54699;51.796;10.956;2022-10-15T05:43:56;22.30;53.70
67899;DHT22;54699;51.796;10.956;2022-10-15T05:46:24;22.30;53.80
67899;DHT22;54699;51.796;10.956;2022-10-15T05:48:52;22.30;53.80
67899;DHT22;54699;51.796;10.956;2022-10-15T05:51:20;22.30;53.80
67899;DHT22;54699;51.796;10.956;2022-10-15T05:53:50;22.30;53.60
67899;DHT22;54699;51.796;10.956;2022-10-15T05:56:17;22.30;53.80
67899;DHT22;54699;51.796;10.956;2022-10-15T05:58:46;22.30;53.70
67899;DHT22;54699;51.796;10.956;2022-10-15T06:01:13;22.30;53.70
67899;DHT22;54699;51.796;10.956;2022-10-15T06:03:40;22.30;53.70
67899;DHT22;54699;51.796;10.956;2022-10-15T06:06:14;22.30;53.70
67899;DHT22;54699;51.796;10.956;2022-10-15T06:08:42;22.30;53.70
67899;DHT22;54699;51.796;10.956;2022-10-15T06:11:09;22.30;53.70
67899;DHT22;54699;51.796;10.956;2022-10-15T06:13:37;22.30;53.70
67899;DHT22;54699;51.796;10.956;2022-10-15T06:16:06;22.30;53.70
67899;DHT22;54699;51.796;10.956;2022-10-15T06:18:34;22.30;53.80
67899;DHT22;54699;51.796;10.956;2022-10-15T06:21:01;22.30;53.70
67899;DHT22;54699;51.796;10.956;2022-10-15T06:23:27;22.30;53.70
67899;DHT22;54699;51.796;10.956;2022-10-15T06:25:54;22.30;53.70
67899;DHT22;54699;51.796;10.956;2022-10-15T06:28:21;22.30;53.70
67899;DHT22;54699;51.796;10.956;2022-10-15T06:30:48;22.30;53.70
67899;DHT22;54699;51.796;10.956;2022-10-15T06:33:16;22.30;53.70
67899;DHT22;54699;51.796;10.956;2022-10-15T06:35:43;22.30;53.70
67899;DHT22;54699;51.796;10.956;2022-10-15T06:38:10;22.30;53.70
67899;DHT22;54699;51.796;10.956;2022-10-15T06:40:37;22.30;53.80
67899;DHT22;54699;51.796;10.956;2022-10-15T06:43:04;22.30;53.80
67899;DHT22;54699;51.796;10.956;2022-10-15T06:45:32;22.30;53.80
67899;DHT22;54699;51.796;10.956;2022-10-15T06:48:01;22.30;53.80
67899;DHT22;54699;51.796;10.956;2022-10-15T06:50:30;22.30;53.80
67899;DHT22;54699;51.796;10.956;2022-10-15T06:52:57;22.30;54.00
67899;DHT22;54699;51.796;10.956;2022-10-15T06:55:24;22.30;53.90
67899;DHT22;54699;51.796;10.956;2022-10-15T06:57:53;22.30;54.00
67899;DHT22;54699;51.796;10.956;2022-10-15T07:00:20;22.30;53.90
67899;DHT22;54699;51.796;10.956;2022-10-15T07:02:48;22.30;53.90
67899;DHT22;54699;51.796;10.956;2022-10-15T07:05:14;22.20;54.00
67899;DHT22;54699;51.796;10.956;2022-10-15T07:07:43;22.20;54.00
67899;DHT22;54699;51.796;10.956;2022-10-15T07:10:16;22.20;54.20
67899;DHT22;54699;51.796;10.956;2022-10-15T07:12:43;22.20;54.20
67899;DHT22;54699;51.796;10.956;2022-10-15T07:15:10;22.20;54.30
67899;DHT22;54699;51.796;10.956;2022-10-15T07:17:37;22.20;54.20
67899;DHT22;54699;51.796;10.956;2022-10-15T07:20:05;22.20;54.30
67899;DHT22;54699;51.796;10.956;2022-10-15T07:22:32;22.20;54.40
67899;DHT22;54699;51.796;10.956;2022-10-15T07:25:00;22.20;54.30
67899;DHT22;54699;51.796;10.956;2022-10-15T07:27:27;22.20;54.60
67899;DHT22;54699;51.796;10.956;2022-10-15T07:29:54;22.20;54.40
67899;DHT22;54699;51.796;10.956;2022-10-15T07:32:21;22.20;55.50
67899;DHT22;54699;51.796;10.956;2022-10-15T07:34:48;22.20;55.60
67899;DHT22;54699;51.796;10.956;2022-10-15T07:37:14;22.20;54.70
67899;DHT22;54699;51.796;10.956;2022-10-15T07:39:41;22.20;54.60
67899;DHT22;54699;51.796;10.956;2022-10-15T07:42:10;22.20;54.70
67899;DHT22;54699;51.796;10.956;2022-10-15T07:44:36;22.20;54.90
67899;DHT22;54699;51.796;10.956;2022-10-15T07:47:03;22.20;55.00
67899;DHT22;54699;51.796;10.956;2022-10-15T07:49:31;22.20;55.00
67899;DHT22;54699;51.796;10.956;2022-10-15T07:51:58;22.20;55.00
67899;DHT22;54699;51.796;10.956;2022-10-15T07:54:25;22.20;54.90
67899;DHT22;54699;51.796;10.956;2022-10-15T07:56:52;22.20;55.20
67899;DHT22;54699;51.796;10.956;2022-10-15T07:59:20;22.20;55.40
67899;DHT22;54699;51.796;10.956;2022-10-15T08:01:47;22.20;55.20
67899;DHT22;54699;51.796;10.956;2022-10-15T08:04:15;22.20;54.90
67899;DHT22;54699;51.796;10.956;2022-10-15T08:06:42;22.20;55.30
67899;DHT22;54699;51.796;10.956;2022-10-15T08:09:09;22.20;55.00
67899;DHT22;54699;51.796;10.956;2022-10-15T08:11:35;22.20;55.50
67899;DHT22;54699;51.796;10.956;2022-10-15T08:14:02;22.20;55.00
67899;DHT22;54699;51.796;10.956;2022-10-15T08:16:31;22.20;54.80
67899;DHT22;54699;51.796;10.956;2022-10-15T08:18:57;22.20;55.20
67899;DHT22;54699;51.796;10.956;2022-10-15T08:21:25;22.20;55.50
67899;DHT22;54699;51.796;10.956;2022-10-15T08:23:52;22.20;55.20
67899;DHT22;54699;51.796;10.956;2022-10-15T08:26:19;22.30;55.60
67899;DHT22;54699;51.796;10.956;2022-10-15T08:28:45;22.20;55.00
67899;DHT22;54699;51.796;10.956;2022-10-15T08:31:12;22.20;55.30
67899;DHT22;54699;51.796;10.956;2022-10-15T08:33:40;22.20;55.50
67899;DHT22;54699;51.796;10.956;2022-10-15T08:36:10;22.30;55.90
67899;DHT22;54699;51.796;10.956;2022-10-15T08:38:37;22.20;55.90
67899;DHT22;54699;51.796;10.956;2022-10-15T08:41:04;22.20;56.00
67899;DHT22;54699;51.796;10.956;2022-10-15T08:43:43;22.20;56.00
67899;DHT22;54699;51.796;10.956;2022-10-15T08:46:13;22.30;56.00
67899;DHT22;54699;51.796;10.956;2022-10-15T08:48:46;22.30;56.30
67899;DHT22;54699;51.796;10.956;2022-10-15T08:51:17;22.30;56.00
67899;DHT22;54699;51.796;10.956;2022-10-15T08:53:47;22.30;56.00
67899;DHT22;54699;51.796;10.956;2022-10-15T08:56:18;22.30;56.00
67899;DHT22;54699;51.796;10.956;2022-10-15T08:58:50;22.30;56.30
67899;DHT22;54699;51.796;10.956;2022-10-15T09:01:23;22.30;55.80
67899;DHT22;54699;51.796;10.956;2022-10-15T09:04:04;22.30;55.90
67899;DHT22;54699;51.796;10.956;2022-10-15T09:06:40;22.30;55.80
67899;DHT22;54699;51.796;10.956;2022-10-15T09:09:10;22.30;55.10
67899;DHT22;54699;51.796;10.956;2022-10-15T09:11:49;22.20;55.00
67899;DHT22;54699;51.796;10.956;2022-10-15T09:14:25;22.30;53.20
67899;DHT22;54699;51.796;10.956;2022-10-15T09:16:55;22.30;53.90
67899;DHT22;54699;51.796;10.956;2022-10-15T09:19:28;22.40;51.40
67899;DHT22;54699;51.796;10.956;2022-10-15T09:21:56;22.50;52.10
67899;DHT22;54699;51.796;10.956;2022-10-15T09:24:27;22.40;52.20
67899;DHT22;54699;51.796;10.956;2022-10-15T09:26:59;22.40;52.90
67899;DHT22;54699;51.796;10.956;2022-10-15T09:29:32;22.40;52.80
67899;DHT22;54699;51.796;10.956;2022-10-15T09:32:08;22.50;50.90
67899;DHT22;54699;51.796;10.956;2022-10-15T09:34:43;22.50;50.90
67899;DHT22;54699;51.796;10.956;2022-10-15T09:37:16;22.50;51.30
67899;DHT22;54699;51.796;10.956;2022-10-15T09:39:53;22.50;51.60
67899;DHT22;54699;51.796;10.956;2022-10-15T09:42:34;22.50;50.70
67899;DHT22;54699;51.796;10.956;2022-10-15T09:45:04;22.50;51.80
67899;DHT22;54699;51.796;10.956;2022-10-15T09:47:35;22.50;51.50
67899;DHT22;54699;51.796;10.956;2022-10-15T09:50:05;22.50;53.30
67899;DHT22;54699;51.796;10.956;2022-10-15T09:52:49;22.50;52.60
67899;DHT22;54699;51.796;10.956;2022-10-15T09:55:32;22.50;51.30
67899;DHT22;54699;51.796;10.956;2022-10-15T09:58:03;22.50;51.80
67899;DHT22;54699;51.796;10.956;2022-10-15T10:00:50;22.50;52.30
67899;DHT22;54699;51.796;10.956;2022-10-15T10:03:20;22.50;51.90
67899;DHT22;54699;51.796;10.956;2022-10-15T10:05:49;22.50;53.30
67899;DHT22;54699;51.796;10.956;2022-10-15T10:08:24;22.60;53.10
67899;DHT22;54699;51.796;10.956;2022-10-15T10:10:54;22.60;52.80
67899;DHT22;54699;51.796;10.956;2022-10-15T10:13:22;22.60;51.10
67899;DHT22;54699;51.796;10.956;2022-10-15T10:15:51;22.70;52.60
67899;DHT22;54699;51.796;10.956;2022-10-15T10:18:20;22.70;51.40
67899;DHT22;54699;51.796;10.956;2022-10-15T10:20:54;22.70;50.00
67899;DHT22;54699;51.796;10.956;2022-10-15T10:23:25;22.70;50.60
67899;DHT22;54699;51.796;10.956;2022-10-15T10:25:57;22.70;50.80
67899;DHT22;54699;51.796;10.956;2022-10-15T10:28:26;22.70;50.50
67899;DHT22;54699;51.796;10.956;2022-10-15T10:30:59;22.80;50.40
67899;DHT22;54699;51.796;10.956;2022-10-15T10:33:30;22.80;50.40
67899;DHT22;54699;51.796;10.956;2022-10-15T10:36:01;22.80;49.80
67899;DHT22;54699;51.796;10.956;2022-10-15T10:38:31;22.80;49.30
67899;DHT22;54699;51.796;10.956;2022-10-15T10:41:00;22.80;49.40
67899;DHT22;54699;51.796;10.956;2022-10-15T10:43:32;22.80;49.50
67899;DHT22;54699;51.796;10.956;2022-10-15T10:46:01;22.80;49.80
67899;DHT22;54699;51.796;10.956;2022-10-15T10:48:36;22.80;49.70
67899;DHT22;54699;51.796;10.956;2022-10-15T10:51:11;22.80;50.10
67899;DHT22;54699;51.796;10.956;2022-10-15T10:53:45;22.80;50.40
67899;DHT22;54699;51.796;10.956;2022-10-15T10:56:15;22.80;49.80
67899;DHT22;54699;51.796;10.956;2022-10-15T10:58:46;22.80;49.70
67899;DHT22;54699;51.796;10.956;2022-10-15T11:01:17;22.80;50.00
67899;DHT22;54699;51.796;10.956;2022-10-15T11:03:44;22.80;49.40
67899;DHT22;54699;51.796;10.956;2022-10-15T11:09:13;22.80;50.20
67899;DHT22;54699;51.796;10.956;2022-10-15T11:11:51;22.80;50.70
67899;DHT22;54699;51.796;10.956;2022-10-15T11:14:34;22.90;51.10
67899;DHT22;54699;51.796;10.956;2022-10-15T11:17:13;22.90;51.90
67899;DHT22;54699;51.796;10.956;2022-10-15T11:19:50;23.00;51.90
67899;DHT22;54699;51.796;10.956;2022-10-15T11:22:42;23.00;51.80
67899;DHT22;54699;51.796;10.956;2022-10-15T11:25:19;23.00;51.70
67899;DHT22;54699;51.796;10.956;2022-10-15T11:27:57;23.00;51.50
67899;DHT22;54699;51.796;10.956;2022-10-15T11:30:38;23.00;50.90
67899;DHT22;54699;51.796;10.956;2022-10-15T11:33:16;23.00;50.30
67899;DHT22;54699;51.796;10.956;2022-10-15T11:35:56;23.00;50.60
67899;DHT22;54699;51.796;10.956;2022-10-15T11:38:36;23.00;49.80
67899;DHT22;54699;51.796;10.956;2022-10-15T11:41:12;23.00;49.50
67899;DHT22;54699;51.796;10.956;2022-10-15T11:43:54;23.00;49.60
67899;DHT22;54699;51.796;10.956;2022-10-15T11:46:32;23.00;50.60
67899;DHT22;54699;51.796;10.956;2022-10-15T11:49:10;23.00;50.80
67899;DHT22;54699;51.796;10.956;2022-10-15T11:51:57;23.00;52.10
67899;DHT22;54699;51.796;10.956;2022-10-15T11:54:35;23.00;52.10
67899;DHT22;54699;51.796;10.956;2022-10-15T11:57:06;23.10;52.40
67899;DHT22;54699;51.796;10.956;2022-10-15T11:59:36;23.10;52.60
67899;DHT22;54699;51.796;10.956;2022-10-15T12:02:10;23.10;53.00
67899;DHT22;54699;51.796;10.956;2022-10-15T12:04:43;23.20;53.50
67899;DHT22;54699;51.796;10.956;2022-10-15T12:07:15;23.20;54.20
67899;DHT22;54699;51.796;10.956;2022-10-15T12:09:47;23.20;53.90
67899;DHT22;54699;51.796;10.956;2022-10-15T12:12:20;23.30;53.90
67899;DHT22;54699;51.796;10.956;2022-10-15T12:15:00;23.30;54.10
67899;DHT22;54699;51.796;10.956;2022-10-15T12:17:39;23.40;54.20
67899;DHT22;54699;51.796;10.956;2022-10-15T12:20:13;23.40;54.30
67899;DHT22;54699;51.796;10.956;2022-10-15T12:22:52;23.40;54.40
67899;DHT22;54699;51.796;10.956;2022-10-15T12:25:39;23.50;54.10
67899;DHT22;54699;51.796;10.956;2022-10-15T12:28:12;23.50;54.30
67899;DHT22;54699;51.796;10.956;2022-10-15T12:30:42;23.50;54.50
67899;DHT22;54699;51.796;10.956;2022-10-15T12:33:22;23.50;54.30
67899;DHT22;54699;51.796;10.956;2022-10-15T12:35:52;23.60;54.40
67899;DHT22;54699;51.796;10.956;2022-10-15T12:38:24;23.60;54.90
67899;DHT22;54699;51.796;10.956;2022-10-15T12:40:56;23.60;55.00
67899;DHT22;54699;51.796;10.956;2022-10-15T12:43:26;23.60;54.70
67899;DHT22;54699;51.796;10.956;2022-10-15T12:45:56;23.60;54.30
67899;DHT22;54699;51.796;10.956;2022-10-15T12:48:28;23.70;54.80
67899;DHT22;54699;51.796;10.956;2022-10-15T12:57:01;23.80;55.20
67899;DHT22;54699;51.796;10.956;2022-10-15T13:02:34;23.80;55.20
67899;DHT22;54699;51.796;10.956;2022-10-15T13:05:04;23.80;55.20
67899;DHT22;54699;51.796;10.956;2022-10-15T13:07:34;23.80;55.20
67899;DHT22;54699;51.796;10.956;2022-10-15T13:10:04;23.90;55.50
67899;DHT22;54699;51.796;10.956;2022-10-15T13:12:48;23.90;55.10
67899;DHT22;54699;51.796;10.956;2022-10-15T13:15:23;23.90;55.00
67899;DHT22;54699;51.796;10.956;2022-10-15T13:17:52;23.90;55.00
67899;DHT22;54699;51.796;10.956;2022-10-15T13:20:26;23.90;55.70
67899;DHT22;54699;51.796;10.956;2022-10-15T13:23:06;23.90;55.70
67899;DHT22;54699;51.796;10.956;2022-10-15T13:25:34;23.90;55.90
67899;DHT22;54699;51.796;10.956;2022-10-15T13:28:02;24.00;56.00
67899;DHT22;54699;51.796;10.956;2022-10-15T13:30:53;23.90;56.00
67899;DHT22;54699;51.796;10.956;2022-10-15T13:33:20;24.00;56.20
67899;DHT22;54699;51.796;10.956;2022-10-15T13:35:48;24.00;55.90
67899;DHT22;54699;51.796;10.956;2022-10-15T13:38:17;24.00;56.00
67899;DHT22;54699;51.796;10.956;2022-10-15T13:40:47;24.00;56.20
67899;DHT22;54699;51.796;10.956;2022-10-15T13:43:17;24.00;56.20
67899;DHT22;54699;51.796;10.956;2022-10-15T13:45:45;24.10;56.40
67899;DHT22;54699;51.796;10.956;2022-10-15T13:48:14;24.10;56.40
67899;DHT22;54699;51.796;10.956;2022-10-15T13:50:46;24.10;56.30
67899;DHT22;54699;51.796;10.956;2022-10-15T13:53:17;24.10;56.30
67899;DHT22;54699;51.796;10.956;2022-10-15T13:55:49;24.10;56.20
67899;DHT22;54699;51.796;10.956;2022-10-15T13:58:20;24.00;55.90
67899;DHT22;54699;51.796;10.956;2022-10-15T14:00:50;24.10;56.10
67899;DHT22;54699;51.796;10.956;2022-10-15T14:03:20;24.10;56.00
67899;DHT22;54699;51.796;10.956;2022-10-15T14:05:48;24.00;56.20
67899;DHT22;54699;51.796;10.956;2022-10-15T14:08:24;24.00;55.90
67899;DHT22;54699;51.796;10.956;2022-10-15T14:10:54;24.00;55.80
67899;DHT22;54699;51.796;10.956;2022-10-15T14:13:25;24.00;55.70
67899;DHT22;54699;51.796;10.956;2022-10-15T14:15:54;24.00;56.00
67899;DHT22;54699;51.796;10.956;2022-10-15T14:18:27;24.00;56.00
67899;DHT22;54699;51.796;10.956;2022-10-15T14:20:57;23.90;55.90
67899;DHT22;54699;51.796;10.956;2022-10-15T14:23:26;23.90;55.80
67899;DHT22;54699;51.796;10.956;2022-10-15T14:25:54;23.90;55.90
67899;DHT22;54699;51.796;10.956;2022-10-15T14:28:24;23.90;55.90
67899;DHT22;54699;51.796;10.956;2022-10-15T14:30:53;23.90;55.80
67899;DHT22;54699;51.796;10.956;2022-10-15T14:36:23;23.80;56.40
67899;DHT22;54699;51.796;10.956;2022-10-15T14:38:51;23.80;56.40
67899;DHT22;54699;51.796;10.956;2022-10-15T14:41:27;23.80;55.90
67899;DHT22;54699;51.796;10.956;2022-10-15T14:44:04;23.80;56.10
67899;DHT22;54699;51.796;10.956;2022-10-15T14:46:34;23.80;55.80
67899;DHT22;54699;51.796;10.956;2022-10-15T14:49:11;23.80;55.80
67899;DHT22;54699;51.796;10.956;2022-10-15T14:51:43;23.70;56.40
67899;DHT22;54699;51.796;10.956;2022-10-15T14:54:13;23.70;55.30
67899;DHT22;54699;51.796;10.956;2022-10-15T14:56:47;23.70;55.30
67899;DHT22;54699;51.796;10.956;2022-10-15T14:59:17;23.70;55.50
67899;DHT22;54699;51.796;10.956;2022-10-15T15:01:50;23.70;55.40
67899;DHT22;54699;51.796;10.956;2022-10-15T15:04:31;23.70;55.40
67899;DHT22;54699;51.796;10.956;2022-10-15T15:07:05;23.70;55.60
67899;DHT22;54699;51.796;10.956;2022-10-15T15:09:38;23.70;55.50
67899;DHT22;54699;51.796;10.956;2022-10-15T15:12:09;23.70;55.30
67899;DHT22;54699;51.796;10.956;2022-10-15T15:14:42;23.70;55.40
67899;DHT22;54699;51.796;10.956;2022-10-15T15:17:12;23.70;55.00
67899;DHT22;54699;51.796;10.956;2022-10-15T15:19:41;23.70;55.00
67899;DHT22;54699;51.796;10.956;2022-10-15T15:22:07;23.60;54.70
67899;DHT22;54699;51.796;10.956;2022-10-15T15:24:37;23.70;54.60
67899;DHT22;54699;51.796;10.956;2022-10-15T15:27:04;23.60;54.70
67899;DHT22;54699;51.796;10.956;2022-10-15T15:29:30;23.60;54.40
67899;DHT22;54699;51.796;10.956;2022-10-15T15:31:58;23.60;54.40
67899;DHT22;54699;51.796;10.956;2022-10-15T15:34:25;23.60;54.20
67899;DHT22;54699;51.796;10.956;2022-10-15T15:36:52;23.60;54.50
67899;DHT22;54699;51.796;10.956;2022-10-15T15:39:19;23.60;54.30
67899;DHT22;54699;51.796;10.956;2022-10-15T15:41:45;23.60;54.50
67899;DHT22;54699;51.796;10.956;2022-10-15T15:44:13;23.60;54.50
67899;DHT22;54699;51.796;10.956;2022-10-15T15:46:40;23.60;54.50
67899;DHT22;54699;51.796;10.956;2022-10-15T15:49:09;23.50;54.50